sensor_id;sensor_type;location;lat;lon;timestamp;P1;durP1;ratioP1;P2;durP2;ratioP2
20441;SDS011;10380;52.102;20.614;2023-05-10T00:02:07;7.73;;;5.30;;
20441;SDS011;10380;52.102;20.614;2023-05-10T00:04:34;9.93;;;5.83;;
20441;SDS011;10380;52.102;20.614;2023-05-10T00:07:01;8.83;;;5.90;;
20441;SDS011;10380;52.102;20.614;2023-05-10T00:09:29;8.90;;;5.80;;
20441;SDS011;10380;52.102;20.614;2023-05-10T00:11:56;8.90;;;6.20;;
20441;SDS011;10380;52.102;20.614;2023-05-10T00:14:24;8.20;;;5.73;;
20441;SDS011;10380;52.102;20.614;2023-05-10T00:16:51;10.40;;;6.03;;
20441;SDS011;10380;52.102;20.614;2023-05-10T00:19:18;9.70;;;6.20;;
20441;SDS011;10380;52.102;20.614;2023-05-10T00:21:45;8.67;;;5.90;;
20441;SDS011;10380;52.102;20.614;2023-05-10T00:24:12;9.03;;;6.80;;
20441;SDS011;10380;52.102;20.614;2023-05-10T00:26:39;10.03;;;6.13;;
20441;SDS011;10380;52.102;20.614;2023-05-10T00:29:08;9.57;;;5.83;;
20441;SDS011;10380;52.102;20.614;2023-05-10T00:31:35;9.67;;;6.17;;
20441;SDS011;10380;52.102;20.614;2023-05-10T00:34:03;11.80;;;5.43;;
20441;SDS011;10380;52.102;20.614;2023-05-10T00:36:31;8.07;;;5.77;;
20441;SDS011;10380;52.102;20.614;2023-05-10T00:38:58;15.23;;;6.27;;
20441;SDS011;10380;52.102;20.614;2023-05-10T00:41:25;9.10;;;5.43;;
20441;SDS011;10380;52.102;20.614;2023-05-10T00:43:52;9.37;;;5.80;;
20441;SDS011;10380;52.102;20.614;2023-05-10T00:46:19;11.83;;;6.20;;
20441;SDS011;10380;52.102;20.614;2023-05-10T00:48:47;10.67;;;5.87;;
20441;SDS011;10380;52.102;20.614;2023-05-10T00:51:14;10.50;;;5.73;;
20441;SDS011;10380;52.102;20.614;2023-05-10T00:53:41;7.80;;;5.87;;
20441;SDS011;10380;52.102;20.614;2023-05-10T00:56:09;10.47;;;6.47;;
20441;SDS011;10380;52.102;20.614;2023-05-10T00:58:36;12.13;;;6.90;;
20441;SDS011;10380;52.102;20.614;2023-05-10T01:01:04;11.50;;;6.00;;
20441;SDS011;10380;52.102;20.614;2023-05-10T01:03:32;9.83;;;6.87;;
20441;SDS011;10380;52.102;20.614;2023-05-10T01:06:00;8.33;;;6.30;;
20441;SDS011;10380;52.102;20.614;2023-05-10T01:08:27;10.70;;;6.30;;
20441;SDS011;10380;52.102;20.614;2023-05-10T01:10:54;12.90;;;6.70;;
20441;SDS011;10380;52.102;20.614;2023-05-10T01:13:33;10.47;;;6.73;;
20441;SDS011;10380;52.102;20.614;2023-05-10T01:16:03;13.93;;;6.87;;
20441;SDS011;10380;52.102;20.614;2023-05-10T01:18:31;9.77;;;6.00;;
20441;SDS011;10380;52.102;20.614;2023-05-10T01:32:15;11.20;;;7.00;;
20441;SDS011;10380;52.102;20.614;2023-05-10T01:35:06;9.43;;;5.73;;
20441;SDS011;10380;52.102;20.614;2023-05-10T01:37:44;11.07;;;7.07;;
20441;SDS011;10380;52.102;20.614;2023-05-10T01:40:23;9.87;;;6.60;;
20441;SDS011;10380;52.102;20.614;2023-05-10T01:43:08;10.17;;;6.57;;
20441;SDS011;10380;52.102;20.614;2023-05-10T01:46:17;9.10;;;6.20;;
20441;SDS011;10380;52.102;20.614;2023-05-10T01:48:41;9.73;;;6.13;;
20441;SDS011;10380;52.102;20.614;2023-05-10T01:51:19;12.33;;;6.60;;
20441;SDS011;10380;52.102;20.614;2023-05-10T01:53:50;12.50;;;6.40;;
20441;SDS011;10380;52.102;20.614;2023-05-10T01:56:24;13.60;;;6.97;;
20441;SDS011;10380;52.102;20.614;2023-05-10T01:58:53;11.70;;;7.10;;
20441;SDS011;10380;52.102;20.614;2023-05-10T02:01:22;9.47;;;6.47;;
20441;SDS011;10380;52.102;20.614;2023-05-10T02:03:50;13.17;;;7.17;;
20441;SDS011;10380;52.102;20.614;2023-05-10T02:06:18;9.33;;;7.07;;
20441;SDS011;10380;52.102;20.614;2023-05-10T02:08:48;9.83;;;6.53;;
20441;SDS011;10380;52.102;20.614;2023-05-10T02:11:17;9.40;;;5.97;;
20441;SDS011;10380;52.102;20.614;2023-05-10T02:13:48;10.53;;;6.67;;
20441;SDS011;10380;52.102;20.614;2023-05-10T02:16:16;11.23;;;5.93;;
20441;SDS011;10380;52.102;20.614;2023-05-10T02:18:44;12.60;;;6.73;;
20441;SDS011;10380;52.102;20.614;2023-05-10T02:21:13;10.23;;;6.37;;
20441;SDS011;10380;52.102;20.614;2023-05-10T02:23:42;12.43;;;6.60;;
20441;SDS011;10380;52.102;20.614;2023-05-10T02:26:10;10.60;;;7.13;;
20441;SDS011;10380;52.102;20.614;2023-05-10T02:28:40;11.47;;;6.50;;
20441;SDS011;10380;52.102;20.614;2023-05-10T02:31:08;13.20;;;6.73;;
20441;SDS011;10380;52.102;20.614;2023-05-10T02:33:37;11.37;;;7.57;;
20441;SDS011;10380;52.102;20.614;2023-05-10T02:36:07;9.60;;;6.57;;
20441;SDS011;10380;52.102;20.614;2023-05-10T02:38:36;10.07;;;7.03;;
20441;SDS011;10380;52.102;20.614;2023-05-10T02:41:03;11.50;;;6.63;;
20441;SDS011;10380;52.102;20.614;2023-05-10T02:43:32;9.50;;;6.63;;
20441;SDS011;10380;52.102;20.614;2023-05-10T02:46:00;15.43;;;7.13;;
20441;SDS011;10380;52.102;20.614;2023-05-10T02:48:27;12.63;;;6.53;;
20441;SDS011;10380;52.102;20.614;2023-05-10T02:50:55;11.67;;;7.33;;
20441;SDS011;10380;52.102;20.614;2023-05-10T02:53:33;10.30;;;6.33;;
20441;SDS011;10380;52.102;20.614;2023-05-10T02:56:05;12.43;;;7.77;;
20441;SDS011;10380;52.102;20.614;2023-05-10T02:58:39;10.77;;;6.83;;
20441;SDS011;10380;52.102;20.614;2023-05-10T03:01:06;12.80;;;7.37;;
20441;SDS011;10380;52.102;20.614;2023-05-10T03:03:34;9.33;;;6.77;;
20441;SDS011;10380;52.102;20.614;2023-05-10T03:06:02;10.93;;;6.23;;
20441;SDS011;10380;52.102;20.614;2023-05-10T03:08:29;11.90;;;7.13;;
20441;SDS011;10380;52.102;20.614;2023-05-10T03:17:15;11.30;;;6.47;;
20441;SDS011;10380;52.102;20.614;2023-05-10T03:19:32;9.43;;;6.53;;
20441;SDS011;10380;52.102;20.614;2023-05-10T03:22:10;10.10;;;6.63;;
20441;SDS011;10380;52.102;20.614;2023-05-10T03:24:39;14.27;;;6.27;;
20441;SDS011;10380;52.102;20.614;2023-05-10T03:27:08;10.53;;;6.57;;
20441;SDS011;10380;52.102;20.614;2023-05-10T03:29:37;11.80;;;7.10;;
20441;SDS011;10380;52.102;20.614;2023-05-10T03:32:05;9.43;;;6.33;;
20441;SDS011;10380;52.102;20.614;2023-05-10T03:34:32;9.23;;;6.60;;
20441;SDS011;10380;52.102;20.614;2023-05-10T03:36:59;9.50;;;6.93;;
20441;SDS011;10380;52.102;20.614;2023-05-10T03:39:26;12.33;;;7.33;;
20441;SDS011;10380;52.102;20.614;2023-05-10T03:41:53;9.17;;;6.63;;
20441;SDS011;10380;52.102;20.614;2023-05-10T03:44:20;8.50;;;6.60;;
20441;SDS011;10380;52.102;20.614;2023-05-10T03:46:47;12.57;;;6.80;;
20441;SDS011;10380;52.102;20.614;2023-05-10T03:49:14;10.87;;;6.50;;
20441;SDS011;10380;52.102;20.614;2023-05-10T03:51:42;13.53;;;7.07;;
20441;SDS011;10380;52.102;20.614;2023-05-10T03:54:09;11.33;;;6.97;;
20441;SDS011;10380;52.102;20.614;2023-05-10T03:56:36;13.47;;;7.37;;
20441;SDS011;10380;52.102;20.614;2023-05-10T03:59:03;10.00;;;7.27;;
20441;SDS011;10380;52.102;20.614;2023-05-10T04:01:34;10.83;;;7.00;;
20441;SDS011;10380;52.102;20.614;2023-05-10T04:04:01;16.97;;;6.93;;
20441;SDS011;10380;52.102;20.614;2023-05-10T04:06:28;10.40;;;5.87;;
20441;SDS011;10380;52.102;20.614;2023-05-10T04:08:55;7.90;;;6.33;;
20441;SDS011;10380;52.102;20.614;2023-05-10T04:11:22;9.13;;;6.37;;
20441;SDS011;10380;52.102;20.614;2023-05-10T04:13:51;8.13;;;6.27;;
20441;SDS011;10380;52.102;20.614;2023-05-10T04:16:18;9.17;;;5.93;;
20441;SDS011;10380;52.102;20.614;2023-05-10T04:18:44;10.87;;;5.97;;
20441;SDS011;10380;52.102;20.614;2023-05-10T04:21:12;10.00;;;6.20;;
20441;SDS011;10380;52.102;20.614;2023-05-10T04:23:42;9.77;;;6.27;;
20441;SDS011;10380;52.102;20.614;2023-05-10T04:26:09;10.57;;;6.53;;
20441;SDS011;10380;52.102;20.614;2023-05-10T04:28:36;9.97;;;6.03;;
20441;SDS011;10380;52.102;20.614;2023-05-10T04:31:03;10.10;;;6.83;;
20441;SDS011;10380;52.102;20.614;2023-05-10T04:33:31;10.70;;;6.33;;
20441;SDS011;10380;52.102;20.614;2023-05-10T04:35:59;13.80;;;6.00;;
20441;SDS011;10380;52.102;20.614;2023-05-10T04:38:26;7.83;;;5.53;;
20441;SDS011;10380;52.102;20.614;2023-05-10T04:40:53;9.73;;;6.10;;
20441;SDS011;10380;52.102;20.614;2023-05-10T04:43:20;9.93;;;5.63;;
20441;SDS011;10380;52.102;20.614;2023-05-10T04:45:47;10.13;;;6.03;;
20441;SDS011;10380;52.102;20.614;2023-05-10T04:48:14;8.77;;;5.80;;
20441;SDS011;10380;52.102;20.614;2023-05-10T04:50:40;9.40;;;5.30;;
20441;SDS011;10380;52.102;20.614;2023-05-10T04:53:07;10.53;;;6.33;;
20441;SDS011;10380;52.102;20.614;2023-05-10T04:55:34;8.93;;;5.90;;
20441;SDS011;10380;52.102;20.614;2023-05-10T04:58:02;8.63;;;5.83;;
20441;SDS011;10380;52.102;20.614;2023-05-10T05:00:29;7.80;;;5.57;;
20441;SDS011;10380;52.102;20.614;2023-05-10T05:02:56;6.97;;;5.40;;
20441;SDS011;10380;52.102;20.614;2023-05-10T05:05:23;9.90;;;5.57;;
20441;SDS011;10380;52.102;20.614;2023-05-10T05:07:50;8.27;;;6.13;;
20441;SDS011;10380;52.102;20.614;2023-05-10T05:10:17;8.53;;;5.40;;
20441;SDS011;10380;52.102;20.614;2023-05-10T05:12:44;7.27;;;5.60;;
20441;SDS011;10380;52.102;20.614;2023-05-10T05:15:11;7.53;;;5.97;;
20441;SDS011;10380;52.102;20.614;2023-05-10T05:17:38;8.97;;;5.43;;
20441;SDS011;10380;52.102;20.614;2023-05-10T05:20:05;10.40;;;5.50;;
20441;SDS011;10380;52.102;20.614;2023-05-10T05:22:32;9.17;;;5.30;;
20441;SDS011;10380;52.102;20.614;2023-05-10T05:24:59;7.83;;;5.37;;
20441;SDS011;10380;52.102;20.614;2023-05-10T05:27:29;8.93;;;5.40;;
20441;SDS011;10380;52.102;20.614;2023-05-10T05:29:56;7.27;;;5.80;;
20441;SDS011;10380;52.102;20.614;2023-05-10T05:32:24;8.87;;;4.67;;
20441;SDS011;10380;52.102;20.614;2023-05-10T05:34:53;11.33;;;6.07;;
20441;SDS011;10380;52.102;20.614;2023-05-10T05:37:20;7.00;;;4.67;;
20441;SDS011;10380;52.102;20.614;2023-05-10T05:39:47;9.70;;;5.03;;
20441;SDS011;10380;52.102;20.614;2023-05-10T05:42:15;6.80;;;4.57;;
20441;SDS011;10380;52.102;20.614;2023-05-10T05:44:44;6.73;;;5.20;;
20441;SDS011;10380;52.102;20.614;2023-05-10T05:47:11;9.23;;;5.63;;
20441;SDS011;10380;52.102;20.614;2023-05-10T05:49:38;8.20;;;4.70;;
20441;SDS011;10380;52.102;20.614;2023-05-10T05:52:05;6.30;;;4.63;;
20441;SDS011;10380;52.102;20.614;2023-05-10T05:54:33;9.33;;;4.80;;
20441;SDS011;10380;52.102;20.614;2023-05-10T05:57:00;5.30;;;4.00;;
20441;SDS011;10380;52.102;20.614;2023-05-10T05:59:27;7.60;;;5.07;;
20441;SDS011;10380;52.102;20.614;2023-05-10T06:01:54;7.77;;;4.67;;
20441;SDS011;10380;52.102;20.614;2023-05-10T06:04:21;8.13;;;4.53;;
20441;SDS011;10380;52.102;20.614;2023-05-10T06:06:48;6.20;;;3.80;;
20441;SDS011;10380;52.102;20.614;2023-05-10T06:09:15;7.67;;;4.30;;
20441;SDS011;10380;52.102;20.614;2023-05-10T06:11:42;5.23;;;4.13;;
20441;SDS011;10380;52.102;20.614;2023-05-10T06:14:09;5.93;;;4.10;;
20441;SDS011;10380;52.102;20.614;2023-05-10T06:16:36;6.83;;;3.83;;
20441;SDS011;10380;52.102;20.614;2023-05-10T06:19:03;6.73;;;4.10;;
20441;SDS011;10380;52.102;20.614;2023-05-10T06:21:30;7.40;;;3.67;;
20441;SDS011;10380;52.102;20.614;2023-05-10T06:23:56;7.53;;;3.83;;
20441;SDS011;10380;52.102;20.614;2023-05-10T06:26:23;6.80;;;3.83;;
20441;SDS011;10380;52.102;20.614;2023-05-10T06:28:51;8.33;;;4.30;;
20441;SDS011;10380;52.102;20.614;2023-05-10T06:31:18;5.27;;;3.30;;
20441;SDS011;10380;52.102;20.614;2023-05-10T06:33:44;6.37;;;3.47;;
20441;SDS011;10380;52.102;20.614;2023-05-10T06:36:11;13.90;;;3.33;;
20441;SDS011;10380;52.102;20.614;2023-05-10T06:38:39;6.63;;;3.70;;
20441;SDS011;10380;52.102;20.614;2023-05-10T06:41:06;6.90;;;3.13;;
20441;SDS011;10380;52.102;20.614;2023-05-10T06:43:33;5.53;;;3.63;;
20441;SDS011;10380;52.102;20.614;2023-05-10T06:46:01;4.90;;;3.03;;
20441;SDS011;10380;52.102;20.614;2023-05-10T06:48:28;9.37;;;3.93;;
20441;SDS011;10380;52.102;20.614;2023-05-10T06:50:55;8.10;;;3.23;;
20441;SDS011;10380;52.102;20.614;2023-05-10T06:53:22;8.07;;;3.33;;
20441;SDS011;10380;52.102;20.614;2023-05-10T06:55:49;6.87;;;3.67;;
20441;SDS011;10380;52.102;20.614;2023-05-10T06:58:17;5.70;;;3.17;;
20441;SDS011;10380;52.102;20.614;2023-05-10T07:00:44;4.67;;;3.30;;
20441;SDS011;10380;52.102;20.614;2023-05-10T07:03:11;5.80;;;2.80;;
20441;SDS011;10380;52.102;20.614;2023-05-10T07:05:39;4.87;;;2.70;;
20441;SDS011;10380;52.102;20.614;2023-05-10T07:08:06;5.97;;;2.70;;
20441;SDS011;10380;52.102;20.614;2023-05-10T07:10:33;5.57;;;2.87;;
20441;SDS011;10380;52.102;20.614;2023-05-10T07:12:59;6.93;;;2.88;;
20441;SDS011;10380;52.102;20.614;2023-05-10T07:15:27;6.80;;;2.43;;
20441;SDS011;10380;52.102;20.614;2023-05-10T07:17:56;7.03;;;2.70;;
20441;SDS011;10380;52.102;20.614;2023-05-10T07:20:24;6.33;;;2.63;;
20441;SDS011;10380;52.102;20.614;2023-05-10T07:22:51;4.65;;;3.20;;
20441;SDS011;10380;52.102;20.614;2023-05-10T07:25:18;4.57;;;2.80;;
20441;SDS011;10380;52.102;20.614;2023-05-10T07:27:44;4.22;;;3.30;;
20441;SDS011;10380;52.102;20.614;2023-05-10T07:30:12;4.97;;;2.10;;
20441;SDS011;10380;52.102;20.614;2023-05-10T07:32:39;6.82;;;2.65;;
20441;SDS011;10380;52.102;20.614;2023-05-10T07:35:08;6.93;;;2.23;;
20441;SDS011;10380;52.102;20.614;2023-05-10T07:37:35;4.68;;;3.22;;
20441;SDS011;10380;52.102;20.614;2023-05-10T07:40:02;3.70;;;2.50;;
20441;SDS011;10380;52.102;20.614;2023-05-10T07:42:29;6.70;;;2.38;;
20441;SDS011;10380;52.102;20.614;2023-05-10T07:44:57;3.08;;;2.50;;
20441;SDS011;10380;52.102;20.614;2023-05-10T07:47:24;6.05;;;2.17;;
20441;SDS011;10380;52.102;20.614;2023-05-10T07:49:52;3.70;;;2.37;;
20441;SDS011;10380;52.102;20.614;2023-05-10T07:52:20;3.53;;;2.05;;
20441;SDS011;10380;52.102;20.614;2023-05-10T07:54:48;5.45;;;2.65;;
20441;SDS011;10380;52.102;20.614;2023-05-10T07:57:15;13.07;;;1.95;;
20441;SDS011;10380;52.102;20.614;2023-05-10T07:59:44;2.92;;;1.80;;
20441;SDS011;10380;52.102;20.614;2023-05-10T08:02:11;4.50;;;2.30;;
20441;SDS011;10380;52.102;20.614;2023-05-10T08:04:38;7.10;;;2.08;;
20441;SDS011;10380;52.102;20.614;2023-05-10T08:07:05;3.97;;;2.10;;
20441;SDS011;10380;52.102;20.614;2023-05-10T08:09:32;2.78;;;2.10;;
20441;SDS011;10380;52.102;20.614;2023-05-10T08:11:58;4.03;;;1.80;;
20441;SDS011;10380;52.102;20.614;2023-05-10T08:14:27;7.93;;;3.00;;
20441;SDS011;10380;52.102;20.614;2023-05-10T08:16:55;3.25;;;2.13;;
20441;SDS011;10380;52.102;20.614;2023-05-10T08:19:22;3.10;;;1.95;;
20441;SDS011;10380;52.102;20.614;2023-05-10T08:21:50;4.28;;;1.80;;
20441;SDS011;10380;52.102;20.614;2023-05-10T08:24:17;2.40;;;1.80;;
20441;SDS011;10380;52.102;20.614;2023-05-10T08:26:44;4.53;;;2.00;;
20441;SDS011;10380;52.102;20.614;2023-05-10T08:29:11;4.03;;;1.92;;
20441;SDS011;10380;52.102;20.614;2023-05-10T08:31:38;4.32;;;2.28;;
20441;SDS011;10380;52.102;20.614;2023-05-10T08:34:05;3.40;;;2.35;;
20441;SDS011;10380;52.102;20.614;2023-05-10T08:36:32;3.00;;;1.50;;
20441;SDS011;10380;52.102;20.614;2023-05-10T08:38:59;3.30;;;1.77;;
20441;SDS011;10380;52.102;20.614;2023-05-10T08:41:26;2.10;;;1.70;;
20441;SDS011;10380;52.102;20.614;2023-05-10T08:43:54;5.32;;;2.00;;
20441;SDS011;10380;52.102;20.614;2023-05-10T08:46:21;3.92;;;2.45;;
20441;SDS011;10380;52.102;20.614;2023-05-10T08:48:49;5.65;;;2.00;;
20441;SDS011;10380;52.102;20.614;2023-05-10T08:51:18;2.50;;;1.70;;
20441;SDS011;10380;52.102;20.614;2023-05-10T08:53:48;4.68;;;1.83;;
20441;SDS011;10380;52.102;20.614;2023-05-10T08:56:15;7.78;;;2.05;;
20441;SDS011;10380;52.102;20.614;2023-05-10T08:58:44;5.80;;;2.00;;
20441;SDS011;10380;52.102;20.614;2023-05-10T09:01:11;4.13;;;2.15;;
20441;SDS011;10380;52.102;20.614;2023-05-10T09:03:39;4.18;;;2.80;;
20441;SDS011;10380;52.102;20.614;2023-05-10T09:06:07;2.83;;;2.17;;
20441;SDS011;10380;52.102;20.614;2023-05-10T09:08:34;2.85;;;2.00;;
20441;SDS011;10380;52.102;20.614;2023-05-10T09:11:03;4.10;;;2.08;;
20441;SDS011;10380;52.102;20.614;2023-05-10T09:13:30;2.60;;;1.80;;
20441;SDS011;10380;52.102;20.614;2023-05-10T09:15:59;4.55;;;1.85;;
20441;SDS011;10380;52.102;20.614;2023-05-10T09:18:39;2.60;;;2.00;;
20441;SDS011;10380;52.102;20.614;2023-05-10T09:21:06;5.85;;;2.00;;
20441;SDS011;10380;52.102;20.614;2023-05-10T09:23:33;2.42;;;2.10;;
20441;SDS011;10380;52.102;20.614;2023-05-10T09:26:04;2.13;;;1.77;;
20441;SDS011;10380;52.102;20.614;2023-05-10T09:28:32;3.28;;;2.72;;
20441;SDS011;10380;52.102;20.614;2023-05-10T09:31:17;4.68;;;2.33;;
20441;SDS011;10380;52.102;20.614;2023-05-10T09:33:45;5.25;;;1.95;;
20441;SDS011;10380;52.102;20.614;2023-05-10T09:36:13;4.03;;;2.85;;
20441;SDS011;10380;52.102;20.614;2023-05-10T09:38:51;2.67;;;2.03;;
20441;SDS011;10380;52.102;20.614;2023-05-10T09:41:20;3.92;;;1.73;;
20441;SDS011;10380;52.102;20.614;2023-05-10T09:43:48;4.68;;;1.90;;
20441;SDS011;10380;52.102;20.614;2023-05-10T09:46:16;6.45;;;2.10;;
20441;SDS011;10380;52.102;20.614;2023-05-10T09:48:44;2.92;;;1.75;;
20441;SDS011;10380;52.102;20.614;2023-05-10T09:51:19;2.63;;;1.73;;
20441;SDS011;10380;52.102;20.614;2023-05-10T09:53:46;12.45;;;2.33;;
20441;SDS011;10380;52.102;20.614;2023-05-10T09:56:13;3.95;;;2.33;;
20441;SDS011;10380;52.102;20.614;2023-05-10T09:59:04;3.38;;;1.88;;
20441;SDS011;10380;52.102;20.614;2023-05-10T10:01:31;3.50;;;2.17;;
20441;SDS011;10380;52.102;20.614;2023-05-10T10:04:00;4.10;;;2.17;;
20441;SDS011;10380;52.102;20.614;2023-05-10T10:06:34;2.63;;;2.13;;
20441;SDS011;10380;52.102;20.614;2023-05-10T10:09:06;2.88;;;1.77;;
20441;SDS011;10380;52.102;20.614;2023-05-10T10:11:34;2.88;;;1.85;;
20441;SDS011;10380;52.102;20.614;2023-05-10T10:14:02;3.47;;;2.00;;
20441;SDS011;10380;52.102;20.614;2023-05-10T10:16:29;6.53;;;2.20;;
20441;SDS011;10380;52.102;20.614;2023-05-10T10:18:57;3.63;;;1.80;;
20441;SDS011;10380;52.102;20.614;2023-05-10T10:21:24;6.78;;;1.92;;
20441;SDS011;10380;52.102;20.614;2023-05-10T10:23:51;5.18;;;2.00;;
20441;SDS011;10380;52.102;20.614;2023-05-10T10:26:19;3.10;;;1.83;;
20441;SDS011;10380;52.102;20.614;2023-05-10T10:29:00;3.80;;;1.83;;
20441;SDS011;10380;52.102;20.614;2023-05-10T10:31:53;3.67;;;1.98;;
20441;SDS011;10380;52.102;20.614;2023-05-10T10:34:40;3.25;;;2.00;;
20441;SDS011;10380;52.102;20.614;2023-05-10T10:37:07;4.05;;;2.22;;
20441;SDS011;10380;52.102;20.614;2023-05-10T10:39:34;2.50;;;1.60;;
20441;SDS011;10380;52.102;20.614;2023-05-10T10:42:03;2.20;;;1.60;;
20441;SDS011;10380;52.102;20.614;2023-05-10T10:57:32;3.47;;;2.00;;
20441;SDS011;10380;52.102;20.614;2023-05-10T11:00:22;5.50;;;2.25;;
20441;SDS011;10380;52.102;20.614;2023-05-10T11:02:58;3.28;;;1.70;;
20441;SDS011;10380;52.102;20.614;2023-05-10T11:05:35;3.65;;;2.00;;
20441;SDS011;10380;52.102;20.614;2023-05-10T11:10:40;4.47;;;2.53;;
20441;SDS011;10380;52.102;20.614;2023-05-10T11:13:15;4.30;;;2.00;;
20441;SDS011;10380;52.102;20.614;2023-05-10T11:15:48;4.10;;;2.10;;
20441;SDS011;10380;52.102;20.614;2023-05-10T11:20:56;5.85;;;2.47;;
20441;SDS011;10380;52.102;20.614;2023-05-10T11:23:29;3.47;;;1.90;;
20441;SDS011;10380;52.102;20.614;2023-05-10T11:26:17;7.57;;;2.35;;
20441;SDS011;10380;52.102;20.614;2023-05-10T11:28:45;2.70;;;2.25;;
20441;SDS011;10380;52.102;20.614;2023-05-10T11:31:17;3.05;;;1.80;;
20441;SDS011;10380;52.102;20.614;2023-05-10T11:33:46;6.85;;;2.33;;
20441;SDS011;10380;52.102;20.614;2023-05-10T11:36:16;4.93;;;1.92;;
20441;SDS011;10380;52.102;20.614;2023-05-10T11:38:47;5.47;;;1.92;;
20441;SDS011;10380;52.102;20.614;2023-05-10T11:41:15;3.25;;;2.03;;
20441;SDS011;10380;52.102;20.614;2023-05-10T11:43:51;10.15;;;2.08;;
20441;SDS011;10380;52.102;20.614;2023-05-10T11:46:20;2.38;;;1.35;;
20441;SDS011;10380;52.102;20.614;2023-05-10T11:48:52;4.05;;;1.80;;
20441;SDS011;10380;52.102;20.614;2023-05-10T11:51:21;4.03;;;1.65;;
20441;SDS011;10380;52.102;20.614;2023-05-10T11:53:52;4.50;;;2.08;;
20441;SDS011;10380;52.102;20.614;2023-05-10T11:56:20;2.38;;;1.50;;
20441;SDS011;10380;52.102;20.614;2023-05-10T11:58:52;3.53;;;1.85;;
20441;SDS011;10380;52.102;20.614;2023-05-10T12:01:21;4.13;;;1.98;;
20441;SDS011;10380;52.102;20.614;2023-05-10T12:03:49;8.32;;;1.90;;
20441;SDS011;10380;52.102;20.614;2023-05-10T12:06:18;3.00;;;1.58;;
20441;SDS011;10380;52.102;20.614;2023-05-10T12:08:47;3.08;;;1.30;;
20441;SDS011;10380;52.102;20.614;2023-05-10T12:11:18;4.32;;;1.58;;
20441;SDS011;10380;52.102;20.614;2023-05-10T12:13:48;5.72;;;1.35;;
20441;SDS011;10380;52.102;20.614;2023-05-10T12:16:20;2.03;;;1.38;;
20441;SDS011;10380;52.102;20.614;2023-05-10T12:18:48;3.60;;;1.58;;
20441;SDS011;10380;52.102;20.614;2023-05-10T12:21:20;7.97;;;1.85;;
20441;SDS011;10380;52.102;20.614;2023-05-10T12:23:52;4.45;;;1.35;;
20441;SDS011;10380;52.102;20.614;2023-05-10T12:26:24;3.60;;;1.42;;
20441;SDS011;10380;52.102;20.614;2023-05-10T12:28:53;6.70;;;1.27;;
20441;SDS011;10380;52.102;20.614;2023-05-10T12:31:20;3.53;;;1.30;;
20441;SDS011;10380;52.102;20.614;2023-05-10T12:33:47;5.32;;;2.08;;
20441;SDS011;10380;52.102;20.614;2023-05-10T12:36:15;4.00;;;1.88;;
20441;SDS011;10380;52.102;20.614;2023-05-10T12:38:46;4.82;;;2.10;;
20441;SDS011;10380;52.102;20.614;2023-05-10T12:41:15;4.95;;;1.63;;
20441;SDS011;10380;52.102;20.614;2023-05-10T12:43:43;4.63;;;1.73;;
20441;SDS011;10380;52.102;20.614;2023-05-10T12:46:12;6.78;;;1.88;;
20441;SDS011;10380;52.102;20.614;2023-05-10T12:48:41;2.78;;;1.73;;
20441;SDS011;10380;52.102;20.614;2023-05-10T12:51:09;4.05;;;1.70;;
20441;SDS011;10380;52.102;20.614;2023-05-10T12:53:39;5.93;;;1.70;;
20441;SDS011;10380;52.102;20.614;2023-05-10T12:56:09;3.22;;;1.42;;
20441;SDS011;10380;52.102;20.614;2023-05-10T12:58:38;3.35;;;2.08;;
20441;SDS011;10380;52.102;20.614;2023-05-10T13:01:05;5.30;;;1.60;;
20441;SDS011;10380;52.102;20.614;2023-05-10T13:03:32;3.95;;;2.15;;
20441;SDS011;10380;52.102;20.614;2023-05-10T13:05:59;3.35;;;1.48;;
20441;SDS011;10380;52.102;20.614;2023-05-10T13:08:27;4.15;;;1.67;;
20441;SDS011;10380;52.102;20.614;2023-05-10T13:10:59;5.38;;;1.45;;
20441;SDS011;10380;52.102;20.614;2023-05-10T13:13:27;4.80;;;1.83;;
20441;SDS011;10380;52.102;20.614;2023-05-10T13:15:54;3.53;;;1.98;;
20441;SDS011;10380;52.102;20.614;2023-05-10T13:18:20;6.18;;;1.73;;
20441;SDS011;10380;52.102;20.614;2023-05-10T13:20:49;3.33;;;1.52;;
20441;SDS011;10380;52.102;20.614;2023-05-10T13:23:16;15.02;;;2.63;;
20441;SDS011;10380;52.102;20.614;2023-05-10T13:25:43;4.70;;;1.52;;
20441;SDS011;10380;52.102;20.614;2023-05-10T13:28:10;4.90;;;1.83;;
20441;SDS011;10380;52.102;20.614;2023-05-10T13:30:36;4.88;;;1.60;;
20441;SDS011;10380;52.102;20.614;2023-05-10T13:33:03;7.97;;;1.67;;
20441;SDS011;10380;52.102;20.614;2023-05-10T13:35:30;6.57;;;1.90;;
20441;SDS011;10380;52.102;20.614;2023-05-10T13:37:57;3.83;;;1.60;;
20441;SDS011;10380;52.102;20.614;2023-05-10T13:40:24;4.78;;;1.67;;
20441;SDS011;10380;52.102;20.614;2023-05-10T13:42:51;2.63;;;1.60;;
20441;SDS011;10380;52.102;20.614;2023-05-10T13:45:19;7.95;;;1.75;;
20441;SDS011;10380;52.102;20.614;2023-05-10T13:47:45;3.17;;;1.42;;
20441;SDS011;10380;52.102;20.614;2023-05-10T13:50:13;5.93;;;1.65;;
20441;SDS011;10380;52.102;20.614;2023-05-10T13:52:40;3.75;;;1.67;;
20441;SDS011;10380;52.102;20.614;2023-05-10T13:55:07;4.55;;;1.90;;
20441;SDS011;10380;52.102;20.614;2023-05-10T13:57:34;9.95;;;1.65;;
20441;SDS011;10380;52.102;20.614;2023-05-10T14:00:02;3.05;;;1.45;;
20441;SDS011;10380;52.102;20.614;2023-05-10T14:02:29;2.88;;;1.45;;
20441;SDS011;10380;52.102;20.614;2023-05-10T14:04:57;3.55;;;1.35;;
20441;SDS011;10380;52.102;20.614;2023-05-10T14:07:24;4.40;;;2.10;;
20441;SDS011;10380;52.102;20.614;2023-05-10T14:09:51;3.50;;;1.80;;
20441;SDS011;10380;52.102;20.614;2023-05-10T14:12:18;6.65;;;1.65;;
20441;SDS011;10380;52.102;20.614;2023-05-10T14:14:44;4.63;;;2.13;;
20441;SDS011;10380;52.102;20.614;2023-05-10T14:17:11;5.95;;;2.10;;
20441;SDS011;10380;52.102;20.614;2023-05-10T14:19:38;2.78;;;1.70;;
20441;SDS011;10380;52.102;20.614;2023-05-10T14:22:06;4.78;;;1.73;;
20441;SDS011;10380;52.102;20.614;2023-05-10T14:24:32;2.42;;;1.50;;
20441;SDS011;10380;52.102;20.614;2023-05-10T14:26:59;2.60;;;1.92;;
20441;SDS011;10380;52.102;20.614;2023-05-10T14:29:26;3.42;;;1.70;;
20441;SDS011;10380;52.102;20.614;2023-05-10T14:31:54;3.88;;;1.85;;
20441;SDS011;10380;52.102;20.614;2023-05-10T14:34:21;3.70;;;1.60;;
20441;SDS011;10380;52.102;20.614;2023-05-10T14:36:48;3.80;;;1.42;;
20441;SDS011;10380;52.102;20.614;2023-05-10T14:39:16;4.35;;;1.83;;
20441;SDS011;10380;52.102;20.614;2023-05-10T14:41:42;3.10;;;1.52;;
20441;SDS011;10380;52.102;20.614;2023-05-10T14:44:11;4.68;;;1.60;;
20441;SDS011;10380;52.102;20.614;2023-05-10T14:46:37;7.88;;;1.90;;
20441;SDS011;10380;52.102;20.614;2023-05-10T14:49:05;3.78;;;1.80;;
20441;SDS011;10380;52.102;20.614;2023-05-10T14:51:32;2.45;;;1.60;;
20441;SDS011;10380;52.102;20.614;2023-05-10T14:53:59;4.72;;;1.77;;
20441;SDS011;10380;52.102;20.614;2023-05-10T14:56:27;4.72;;;1.88;;
20441;SDS011;10380;52.102;20.614;2023-05-10T14:58:54;4.80;;;1.80;;
20441;SDS011;10380;52.102;20.614;2023-05-10T15:01:22;4.28;;;2.10;;
20441;SDS011;10380;52.102;20.614;2023-05-10T15:03:50;3.22;;;1.40;;
20441;SDS011;10380;52.102;20.614;2023-05-10T15:06:22;6.40;;;2.28;;
20441;SDS011;10380;52.102;20.614;2023-05-10T15:08:53;4.15;;;1.40;;
20441;SDS011;10380;52.102;20.614;2023-05-10T15:11:20;5.95;;;2.33;;
20441;SDS011;10380;52.102;20.614;2023-05-10T15:13:46;2.55;;;1.80;;
20441;SDS011;10380;52.102;20.614;2023-05-10T15:16:14;2.55;;;1.30;;